createdAt,value
2022-10-10T00:00:40.768Z,75.06
2022-10-10T00:03:07.091Z,74.87
2022-10-10T00:05:33.408Z,74.71
2022-10-10T00:08:02.120Z,74.74
2022-10-10T00:10:26.331Z,74.73
2022-10-10T00:12:52.991Z,74.19
2022-10-10T00:15:18.978Z,74.29
2022-10-10T00:17:45.320Z,74.08
2022-10-10T00:20:11.657Z,74.40
2022-10-10T00:22:38.001Z,74.19
2022-10-10T00:25:04.318Z,73.85
2022-10-10T00:27:30.654Z,73.89
2022-10-10T00:29:56.996Z,74.06
2022-10-10T00:32:23.343Z,74.03
2022-10-10T00:34:49.659Z,74.27
2022-10-10T00:37:16.009Z,73.81
2022-10-10T00:39:42.328Z,74.07
2022-10-10T00:42:08.660Z,74.05
2022-10-10T00:44:35.000Z,73.49
2022-10-10T00:47:01.341Z,73.37
2022-10-10T00:49:27.658Z,73.59
2022-10-10T00:51:53.980Z,73.68
2022-10-10T00:54:20.323Z,73.66
2022-10-10T00:56:46.684Z,73.92
2022-10-10T00:59:12.995Z,73.28
2022-10-10T01:01:39.322Z,73.03
2022-10-10T01:04:05.677Z,73.22
2022-10-10T01:06:32.022Z,73.91
2022-10-10T01:08:58.336Z,74.51
2022-10-10T01:11:24.689Z,74.66
2022-10-10T01:13:51.019Z,75.29
2022-10-10T01:16:17.340Z,76.42
2022-10-10T01:18:43.698Z,76.81
2022-10-10T01:21:10.093Z,76.78
2022-10-10T01:23:36.405Z,76.33
2022-10-10T01:26:02.765Z,76.34
2022-10-10T01:28:29.152Z,76.44
2022-10-10T01:30:55.434Z,76.47
2022-10-10T01:33:21.776Z,76.42
2022-10-10T01:35:48.117Z,76.21
2022-10-10T01:38:14.481Z,76.18
2022-10-10T01:40:40.798Z,75.77
2022-10-10T01:43:07.116Z,75.54
2022-10-10T01:45:33.441Z,75.75
2022-10-10T01:47:59.779Z,75.78
2022-10-10T01:50:26.096Z,76.05
2022-10-10T01:52:52.742Z,76.00
2022-10-10T01:55:18.786Z,75.98
2022-10-10T01:57:45.103Z,75.49
2022-10-10T02:00:11.448Z,75.85
2022-10-10T02:02:37.784Z,75.95
2022-10-10T02:05:04.105Z,75.93
2022-10-10T02:07:30.482Z,76.10
2022-10-10T02:09:56.799Z,75.91
2022-10-10T02:12:23.119Z,76.00
2022-10-10T02:14:49.443Z,75.91
2022-10-10T02:17:15.783Z,75.88
2022-10-10T02:19:42.133Z,75.86
2022-10-10T02:22:08.449Z,75.64
2022-10-10T02:24:34.795Z,75.92
2022-10-10T02:27:01.130Z,75.98
2022-10-10T02:29:27.473Z,76.30
2022-10-10T02:31:53.809Z,75.88
2022-10-10T02:34:20.167Z,75.89
2022-10-10T02:36:46.511Z,75.98
2022-10-10T02:39:12.842Z,76.05
2022-10-10T02:41:39.223Z,76.11
2022-10-10T02:44:05.540Z,76.38
2022-10-10T02:46:31.870Z,76.67
2022-10-10T02:48:58.183Z,76.31
2022-10-10T02:51:28.528Z,76.05
2022-10-10T02:53:50.885Z,76.04
2022-10-10T02:56:17.221Z,76.11
2022-10-10T02:58:43.562Z,75.54
2022-10-10T03:01:09.903Z,74.91
2022-10-10T03:03:36.209Z,75.44
2022-10-10T03:06:02.553Z,75.95
2022-10-10T03:08:28.901Z,76.30
2022-10-10T03:10:55.234Z,76.21
2022-10-10T03:13:21.567Z,76.48
2022-10-10T03:15:47.912Z,76.67
2022-10-10T03:18:14.247Z,76.61
2022-10-10T03:20:40.587Z,76.63
2022-10-10T03:23:06.903Z,76.54
2022-10-10T03:25:33.271Z,76.66
2022-10-10T03:27:59.606Z,76.48
2022-10-10T03:30:25.926Z,76.44
2022-10-10T03:32:52.699Z,76.70
2022-10-10T03:35:18.633Z,76.71
2022-10-10T03:37:44.971Z,76.61
2022-10-10T03:40:11.314Z,76.80
2022-10-10T03:42:37.651Z,76.99
2022-10-10T03:45:03.996Z,77.23
2022-10-10T03:47:30.328Z,77.33
2022-10-10T03:49:56.697Z,77.44
2022-10-10T03:52:23.012Z,77.80
2022-10-10T03:54:49.351Z,78.29
2022-10-10T03:57:15.669Z,78.43
2022-10-10T03:59:42.003Z,78.60
2022-10-10T04:02:08.345Z,78.63
2022-10-10T04:04:34.690Z,78.55
2022-10-10T04:07:01.007Z,78.66
2022-10-10T04:09:27.333Z,78.72
2022-10-10T04:11:53.703Z,78.76
2022-10-10T04:14:20.024Z,79.01
2022-10-10T04:16:46.360Z,79.09
2022-10-10T04:19:12.740Z,78.69
2022-10-10T04:21:39.052Z,78.49
2022-10-10T04:24:05.396Z,78.48
2022-10-10T04:26:31.734Z,78.41
2022-10-10T04:28:58.057Z,78.17
2022-10-10T04:31:24.392Z,77.93
2022-10-10T04:33:50.730Z,77.81
2022-10-10T04:36:17.068Z,77.86
2022-10-10T04:38:43.414Z,77.92
2022-10-10T04:41:09.767Z,78.01
2022-10-10T04:43:36.084Z,77.86
2022-10-10T04:46:02.408Z,77.77
2022-10-10T04:48:28.770Z,77.57
2022-10-10T04:50:55.091Z,77.02
2022-10-10T04:53:21.411Z,76.10
2022-10-10T04:55:47.760Z,75.75
2022-10-10T04:58:14.107Z,75.07
2022-10-10T05:00:40.444Z,75.02
2022-10-10T05:03:06.796Z,74.97
2022-10-10T05:05:33.133Z,74.70
2022-10-10T05:07:59.452Z,74.06
2022-10-10T05:10:25.816Z,73.52
2022-10-10T05:12:52.672Z,73.70
2022-10-10T05:15:18.468Z,73.44
2022-10-10T05:17:44.797Z,73.13
2022-10-10T05:20:11.115Z,72.84
2022-10-10T05:22:37.449Z,72.53
2022-10-10T05:25:03.771Z,71.98
2022-10-10T05:29:56.207Z,71.05
2022-10-10T05:32:22.553Z,70.71
2022-10-10T05:34:49.037Z,70.16
2022-10-10T05:37:15.352Z,69.82
2022-10-10T05:39:41.670Z,69.00
2022-10-10T05:42:08.003Z,68.75
2022-10-10T05:44:34.321Z,68.52
2022-10-10T05:47:00.667Z,68.28
2022-10-10T05:49:27.030Z,67.30
2022-10-10T05:51:53.357Z,66.54
2022-10-10T05:54:19.695Z,65.71
2022-10-10T05:56:46.053Z,64.56
2022-10-10T05:59:12.358Z,64.22
2022-10-10T06:01:38.681Z,66.04
2022-10-10T06:04:05.020Z,66.04
2022-10-10T06:06:31.345Z,65.12
2022-10-10T06:08:57.668Z,64.25
2022-10-10T06:11:24.031Z,64.03
2022-10-10T06:13:50.382Z,62.35
2022-10-10T06:16:16.751Z,62.08
2022-10-10T06:18:43.093Z,61.62
2022-10-10T06:21:09.417Z,61.33
2022-10-10T06:23:35.733Z,60.80
2022-10-10T06:26:02.073Z,62.42
2022-10-10T06:28:28.455Z,62.75
2022-10-10T06:30:54.762Z,62.06
2022-10-10T06:33:21.080Z,61.37
2022-10-10T06:35:47.504Z,60.42
2022-10-10T06:38:13.838Z,60.13
2022-10-10T06:40:40.176Z,60.66
2022-10-10T06:43:06.516Z,60.88
2022-10-10T06:45:32.832Z,60.63
2022-10-10T06:47:59.171Z,61.12
2022-10-10T06:50:25.559Z,61.75
2022-10-10T06:52:52.183Z,61.16
2022-10-10T06:55:18.233Z,60.73
2022-10-10T06:57:44.603Z,60.26
2022-10-10T07:00:10.944Z,61.18
2022-10-10T07:02:37.331Z,61.28
2022-10-10T07:05:03.659Z,60.84
2022-10-10T07:07:29.996Z,60.49
2022-10-10T07:09:56.326Z,59.94
2022-10-10T07:12:22.668Z,58.82
2022-10-10T07:14:49.010Z,59.49
2022-10-10T07:17:15.329Z,58.19
2022-10-10T07:19:41.674Z,58.12
2022-10-10T07:22:08.005Z,57.01
2022-10-10T07:24:34.523Z,56.66
2022-10-10T07:27:06.232Z,56.41
2022-10-10T07:29:27.211Z,55.27
2022-10-10T07:31:53.523Z,55.58
2022-10-10T07:34:19.844Z,55.87
2022-10-10T07:36:46.172Z,55.64
2022-10-10T07:39:16.928Z,55.45
2022-10-10T07:41:38.874Z,55.67
2022-10-10T07:44:05.219Z,55.81
2022-10-10T07:46:31.539Z,54.54
2022-10-10T07:48:57.883Z,54.05
2022-10-10T07:51:24.245Z,53.69
2022-10-10T07:53:50.570Z,53.43
2022-10-10T07:56:16.892Z,54.17
2022-10-10T07:58:43.244Z,53.88
2022-10-10T08:01:09.587Z,53.63
2022-10-10T08:03:35.904Z,55.10
2022-10-10T08:06:02.255Z,54.80
2022-10-10T08:08:28.611Z,54.31
2022-10-10T08:10:54.916Z,53.09
2022-10-10T08:13:21.263Z,53.71
2022-10-10T08:15:47.595Z,54.07
2022-10-10T08:18:13.938Z,54.76
2022-10-10T08:20:40.254Z,53.56
2022-10-10T08:23:06.607Z,53.72
2022-10-10T08:25:32.945Z,52.24
2022-10-10T08:27:59.266Z,52.13
2022-10-10T08:30:25.613Z,51.01
2022-10-10T08:32:52.434Z,50.65
2022-10-10T08:35:18.281Z,50.42
2022-10-10T08:37:44.607Z,50.65
2022-10-10T08:40:10.946Z,50.11
2022-10-10T08:42:39.606Z,49.60
2022-10-10T08:45:03.641Z,48.91
2022-10-10T08:47:29.962Z,49.45
2022-10-10T08:49:57.511Z,50.12
2022-10-10T08:52:23.832Z,50.23
2022-10-10T08:54:51.314Z,49.18
2022-10-10T08:57:16.534Z,48.54
2022-10-10T08:59:42.903Z,47.69
2022-10-10T09:02:18.105Z,48.38
2022-10-10T09:04:35.536Z,48.63
2022-10-10T09:07:01.890Z,48.07
2022-10-10T09:09:28.228Z,48.17
2022-10-10T09:11:54.580Z,47.67
2022-10-10T09:14:20.911Z,47.42
2022-10-10T09:16:47.310Z,46.04
2022-10-10T09:19:16.146Z,46.78
2022-10-10T09:21:39.967Z,45.91
2022-10-10T09:24:06.408Z,45.36
2022-10-10T09:26:32.759Z,44.85
2022-10-10T09:28:59.063Z,43.37
2022-10-10T09:31:25.403Z,44.03
2022-10-10T09:33:51.740Z,43.79
2022-10-10T09:36:18.132Z,44.54
2022-10-10T09:38:44.470Z,44.41
2022-10-10T09:41:10.792Z,44.41
2022-10-10T09:43:37.134Z,44.03
2022-10-10T09:46:03.481Z,44.93
2022-10-10T09:48:29.820Z,44.50
2022-10-10T09:50:56.935Z,44.68
2022-10-10T09:53:22.810Z,44.88
2022-10-10T09:55:49.158Z,44.86
2022-10-10T09:58:16.611Z,44.83
2022-10-10T10:00:42.985Z,44.67
2022-10-10T10:03:09.272Z,44.82
2022-10-10T10:05:35.615Z,45.23
2022-10-10T10:08:01.936Z,44.91
2022-10-10T10:10:28.264Z,44.74
2022-10-10T10:12:54.649Z,44.97
2022-10-10T10:15:21.013Z,44.70
2022-10-10T10:17:47.347Z,44.56
2022-10-10T10:20:13.694Z,44.31
2022-10-10T10:22:40.049Z,44.57
2022-10-10T10:25:06.353Z,44.44
2022-10-10T10:27:32.732Z,43.95
2022-10-10T10:29:59.082Z,43.68
2022-10-10T10:32:25.422Z,43.46
2022-10-10T10:34:51.763Z,43.28
2022-10-10T10:37:18.082Z,43.05
2022-10-10T10:39:44.516Z,42.66
2022-10-10T10:42:10.751Z,42.73
2022-10-10T10:44:37.172Z,42.83
2022-10-10T10:47:03.441Z,42.74
2022-10-10T10:49:29.812Z,43.00
2022-10-10T10:51:56.099Z,42.48
2022-10-10T10:54:22.499Z,42.73
2022-10-10T10:56:48.830Z,42.33
2022-10-10T10:59:36.273Z,42.66
2022-10-10T11:01:58.326Z,43.52
2022-10-10T11:05:16.475Z,43.00
2022-10-10T11:06:34.293Z,43.24
2022-10-10T11:09:00.767Z,43.33
2022-10-10T11:11:27.104Z,43.13
2022-10-10T11:13:53.467Z,43.31
2022-10-10T11:16:43.578Z,42.93
2022-10-10T11:18:46.162Z,43.08
2022-10-10T11:21:12.498Z,43.06
2022-10-10T11:23:38.839Z,42.44
2022-10-10T11:26:05.170Z,43.05
2022-10-10T11:28:31.578Z,42.98
2022-10-10T11:30:58.067Z,43.39
2022-10-10T11:33:24.193Z,42.94
2022-10-10T11:35:50.533Z,43.01
2022-10-10T11:38:16.854Z,43.58
2022-10-10T11:40:43.229Z,43.44
2022-10-10T11:43:09.555Z,43.74
2022-10-10T11:45:36.015Z,43.63
2022-10-10T11:48:02.329Z,43.75
2022-10-10T11:50:28.671Z,43.57
2022-10-10T11:52:55.050Z,43.79
2022-10-10T11:55:21.392Z,43.34
2022-10-10T11:57:47.726Z,43.23
2022-10-10T12:00:14.067Z,43.20
2022-10-10T12:02:40.405Z,43.47
2022-10-10T12:05:06.736Z,43.51
2022-10-10T12:07:33.093Z,43.03
2022-10-10T12:09:59.411Z,43.24
2022-10-10T12:12:25.751Z,43.32
2022-10-10T12:14:52.103Z,43.19
2022-10-10T12:17:18.428Z,42.95
2022-10-10T12:19:44.748Z,43.19
2022-10-10T12:22:11.112Z,43.17
2022-10-10T12:24:42.294Z,42.73
2022-10-10T12:27:03.766Z,42.44
2022-10-10T12:29:30.090Z,42.49
2022-10-10T12:31:56.420Z,42.50
2022-10-10T12:34:22.813Z,42.41
2022-10-10T12:36:49.162Z,42.17
2022-10-10T12:39:15.505Z,41.67
2022-10-10T12:41:46.997Z,40.99
2022-10-10T12:44:08.165Z,40.87
2022-10-10T12:46:34.515Z,40.02
2022-10-10T12:49:00.851Z,39.47
2022-10-10T12:51:27.193Z,40.86
2022-10-10T12:53:53.584Z,40.82
2022-10-10T12:56:19.901Z,40.91
2022-10-10T12:58:46.245Z,40.28
2022-10-10T13:01:12.664Z,40.71
2022-10-10T13:03:38.958Z,40.72
2022-10-10T13:06:05.300Z,40.69
2022-10-10T13:08:31.708Z,41.10
2022-10-10T13:10:58.022Z,40.75
2022-10-10T13:13:24.367Z,40.73
2022-10-10T13:15:50.688Z,40.51
2022-10-10T13:18:17.034Z,40.58
2022-10-10T13:20:43.457Z,40.93
2022-10-10T13:23:09.828Z,41.55
2022-10-10T13:25:36.146Z,42.12
2022-10-10T13:28:02.469Z,42.12
2022-10-10T13:30:28.814Z,42.10
2022-10-10T13:32:55.166Z,42.22
2022-10-10T13:35:21.524Z,42.44
2022-10-10T13:37:47.867Z,43.06
2022-10-10T13:40:14.181Z,43.16
2022-10-10T13:42:40.585Z,43.13
2022-10-10T13:45:06.922Z,43.34
2022-10-10T13:47:33.253Z,43.40
2022-10-10T13:49:59.610Z,44.16
2022-10-10T13:52:25.963Z,43.96
2022-10-10T13:54:52.278Z,44.28
2022-10-10T13:57:18.609Z,44.22
2022-10-10T13:59:44.925Z,44.48
2022-10-10T14:02:11.325Z,44.12
2022-10-10T14:04:37.574Z,44.38
2022-10-10T14:07:03.991Z,44.20
2022-10-10T14:09:30.259Z,43.90
2022-10-10T14:11:56.609Z,44.05
2022-10-10T14:14:22.993Z,44.48
2022-10-10T14:16:49.334Z,44.71
2022-10-10T14:19:15.665Z,45.14
2022-10-10T14:21:41.997Z,44.77
2022-10-10T14:24:08.310Z,44.75
2022-10-10T14:26:34.636Z,44.85
2022-10-10T14:29:00.958Z,45.02
2022-10-10T14:31:27.306Z,44.79
2022-10-10T14:33:53.642Z,45.25
2022-10-10T14:36:19.986Z,45.48
2022-10-10T14:38:46.308Z,45.10
2022-10-10T14:41:12.671Z,44.93
2022-10-10T14:43:43.442Z,44.65
2022-10-10T14:46:05.325Z,44.59
2022-10-10T14:48:31.647Z,44.70
2022-10-10T14:50:58.011Z,44.98
2022-10-10T14:53:24.323Z,45.07
2022-10-10T14:55:55.994Z,45.03
2022-10-10T14:58:17.000Z,44.75
2022-10-10T15:00:43.345Z,45.02
2022-10-10T15:03:09.738Z,45.06
2022-10-10T15:05:36.046Z,44.98
2022-10-10T15:08:02.360Z,45.26
2022-10-10T15:10:36.181Z,45.37
2022-10-10T15:12:55.222Z,45.59
2022-10-10T15:15:21.587Z,45.59
2022-10-10T15:17:47.927Z,45.73
2022-10-10T15:20:14.281Z,45.96
2022-10-10T15:22:40.593Z,45.95
2022-10-10T15:25:06.918Z,46.25
2022-10-10T15:27:33.258Z,46.19
2022-10-10T15:29:59.582Z,46.45
2022-10-10T15:32:25.962Z,47.09
2022-10-10T15:34:52.309Z,46.85
2022-10-10T15:37:18.620Z,47.34
2022-10-10T15:39:44.972Z,47.67
2022-10-10T15:42:15.162Z,48.11
2022-10-10T15:44:37.639Z,47.98
2022-10-10T15:47:03.979Z,47.83
2022-10-10T15:49:30.345Z,48.10
2022-10-10T15:51:56.636Z,47.91
2022-10-10T15:54:22.977Z,48.49
2022-10-10T15:56:49.295Z,48.41
2022-10-10T15:59:15.625Z,48.78
2022-10-10T16:01:42.000Z,48.99
2022-10-10T16:04:08.339Z,48.95
2022-10-10T16:06:34.674Z,49.08
2022-10-10T16:09:23.653Z,49.63
2022-10-10T16:11:27.441Z,49.60
2022-10-10T16:13:53.756Z,49.85
2022-10-10T16:16:20.162Z,50.07
2022-10-10T16:18:46.488Z,50.38
2022-10-10T16:21:12.822Z,50.50
2022-10-10T16:23:39.174Z,51.17
2022-10-10T16:26:05.783Z,51.12
2022-10-10T16:28:31.950Z,51.18
2022-10-10T16:30:58.209Z,51.92
2022-10-10T16:33:24.940Z,51.76
2022-10-10T16:35:51.262Z,52.16
2022-10-10T16:38:17.588Z,52.11
2022-10-10T16:40:43.954Z,52.16
2022-10-10T16:43:10.265Z,52.02
2022-10-10T16:45:36.580Z,52.14
2022-10-10T16:48:03.052Z,52.04
2022-10-10T16:50:29.353Z,52.60
2022-10-10T16:52:55.704Z,52.83
2022-10-10T16:55:22.071Z,53.38
2022-10-10T16:57:48.395Z,52.87
2022-10-10T17:00:14.717Z,53.22
2022-10-10T17:02:41.112Z,53.42
2022-10-10T17:05:07.442Z,53.91
2022-10-10T17:07:33.771Z,54.32
2022-10-10T17:10:00.160Z,55.50
2022-10-10T17:12:26.505Z,55.75
2022-10-10T17:14:52.870Z,56.33
2022-10-10T17:17:19.218Z,56.38
2022-10-10T17:19:45.570Z,56.27
2022-10-10T17:22:11.914Z,56.39
2022-10-10T17:24:38.252Z,56.45
2022-10-10T17:27:04.577Z,56.71
2022-10-10T17:29:30.943Z,56.71
2022-10-10T17:31:57.247Z,57.03
2022-10-10T17:34:23.589Z,57.15
2022-10-10T17:36:49.942Z,57.69
2022-10-10T17:39:16.270Z,58.01
2022-10-10T17:41:42.744Z,58.23
2022-10-10T17:44:08.990Z,58.22
2022-10-10T17:46:36.863Z,58.62
2022-10-10T17:49:01.745Z,58.51
2022-10-10T17:51:28.078Z,58.76
2022-10-10T17:53:54.434Z,58.82
2022-10-10T17:56:20.808Z,59.08
2022-10-10T17:58:47.106Z,59.19
2022-10-10T18:01:13.550Z,59.50
2022-10-10T18:03:39.840Z,59.21
2022-10-10T18:06:06.171Z,59.08
2022-10-10T18:08:32.508Z,59.44
2022-10-10T18:10:58.902Z,59.55
2022-10-10T18:13:25.207Z,59.91
2022-10-10T18:16:06.178Z,59.89
2022-10-10T18:18:17.894Z,60.62
2022-10-10T18:20:44.238Z,60.25
2022-10-10T18:23:10.599Z,60.14
2022-10-10T18:25:36.964Z,60.52
2022-10-10T18:28:03.290Z,61.26
2022-10-10T18:30:29.633Z,60.53
2022-10-10T18:32:56.014Z,60.50
2022-10-10T18:35:22.364Z,60.40
2022-10-10T18:37:48.702Z,60.34
2022-10-10T18:40:15.103Z,61.10
2022-10-10T18:42:41.425Z,61.06
2022-10-10T18:45:07.745Z,61.02
2022-10-10T18:47:34.089Z,60.84
2022-10-10T18:50:00.432Z,61.37
2022-10-10T18:52:26.745Z,60.80
2022-10-10T18:54:53.073Z,60.67
2022-10-10T18:57:19.391Z,60.62
2022-10-10T18:59:45.840Z,61.06
2022-10-10T19:02:12.155Z,61.02
2022-10-10T19:04:38.547Z,61.00
2022-10-10T19:07:04.885Z,61.18
2022-10-10T19:09:31.209Z,61.05
2022-10-10T19:11:57.794Z,60.67
2022-10-10T19:14:24.145Z,60.83
2022-10-10T19:16:50.490Z,60.92
2022-10-10T19:19:16.818Z,61.01
2022-10-10T19:21:43.146Z,60.92
2022-10-10T19:24:09.510Z,61.00
2022-10-10T19:26:35.825Z,60.85
2022-10-10T19:29:06.580Z,61.19
2022-10-10T19:31:28.514Z,61.02
2022-10-10T19:33:54.891Z,60.71
2022-10-10T19:36:21.202Z,60.70
2022-10-10T19:38:47.604Z,60.99
2022-10-10T19:41:13.972Z,60.91
2022-10-10T19:43:40.312Z,61.56
2022-10-10T19:46:07.188Z,61.43
2022-10-10T19:48:33.008Z,61.75
2022-10-10T19:50:59.312Z,61.99
2022-10-10T19:53:25.637Z,62.13
2022-10-10T19:55:51.973Z,62.38
2022-10-10T19:58:18.393Z,62.87
2022-10-10T20:00:44.735Z,62.99
2022-10-10T20:03:11.053Z,63.25
2022-10-10T20:05:37.376Z,63.53
2022-10-10T20:08:03.712Z,63.76
2022-10-10T20:10:30.023Z,63.99
2022-10-10T20:12:56.415Z,63.97
2022-10-10T20:15:22.751Z,63.76
2022-10-10T20:17:49.070Z,64.06
2022-10-10T20:20:15.432Z,63.91
2022-10-10T20:22:41.758Z,63.94
2022-10-10T20:25:08.104Z,63.79
2022-10-10T20:27:34.485Z,64.03
2022-10-10T20:30:00.804Z,63.93
2022-10-10T20:32:27.151Z,63.97
2022-10-10T20:34:53.495Z,64.52
2022-10-10T20:37:19.818Z,64.52
2022-10-10T20:39:46.158Z,64.45
2022-10-10T20:42:12.485Z,64.80
2022-10-10T20:44:38.825Z,64.31
2022-10-10T20:47:05.150Z,64.25
2022-10-10T20:49:31.499Z,64.58
2022-10-10T20:51:57.822Z,64.55
2022-10-10T20:54:24.181Z,64.38
2022-10-10T20:56:50.533Z,64.83
2022-10-10T20:59:16.848Z,64.57
2022-10-10T21:01:43.257Z,64.61
2022-10-10T21:04:09.505Z,64.34
2022-10-10T21:06:35.828Z,64.40
2022-10-10T21:09:02.200Z,64.44
2022-10-10T21:11:28.540Z,64.56
2022-10-10T21:13:54.874Z,64.93
2022-10-10T21:16:21.195Z,64.71
2022-10-10T21:18:57.007Z,64.83
2022-10-10T21:21:13.898Z,64.51
2022-10-10T21:23:40.233Z,64.74
2022-10-10T21:26:07.141Z,65.01
2022-10-10T21:28:33.011Z,65.19
2022-10-10T21:30:59.271Z,65.31
2022-10-10T21:33:25.590Z,65.81
2022-10-10T21:35:51.910Z,65.54
2022-10-10T21:38:18.250Z,65.87
2022-10-10T21:40:44.595Z,65.79
2022-10-10T21:43:10.930Z,65.78
2022-10-10T21:45:37.249Z,65.92
2022-10-10T21:48:03.589Z,65.82
2022-10-10T21:50:29.972Z,65.73
2022-10-10T21:52:56.287Z,65.45
2022-10-10T21:55:22.674Z,65.79
2022-10-10T21:57:49.022Z,65.75
2022-10-10T22:00:15.356Z,65.92
2022-10-10T22:02:41.680Z,65.96
2022-10-10T22:05:08.007Z,66.04
2022-10-10T22:07:34.351Z,66.14
2022-10-10T22:10:00.706Z,66.77
2022-10-10T22:12:27.026Z,66.52
2022-10-10T22:14:53.345Z,66.49
2022-10-10T22:17:19.667Z,66.07
2022-10-10T22:19:46.008Z,66.09
2022-10-10T22:22:12.331Z,66.05
2022-10-10T22:24:38.655Z,66.21
2022-10-10T22:27:05.028Z,66.01
2022-10-10T22:29:31.365Z,65.86
2022-10-10T22:31:57.746Z,66.33
2022-10-10T22:34:24.081Z,66.26
2022-10-10T22:36:50.441Z,66.28
2022-10-10T22:39:16.789Z,66.19
2022-10-10T22:41:43.104Z,66.05
2022-10-10T22:44:09.466Z,66.10
2022-10-10T22:46:35.805Z,66.35
2022-10-10T22:49:02.125Z,66.56
2022-10-10T22:51:28.466Z,66.50
2022-10-10T22:53:54.808Z,66.59
2022-10-10T22:56:21.120Z,66.82
2022-10-10T22:58:47.442Z,66.71
2022-10-10T23:01:13.800Z,66.46
2022-10-10T23:03:40.126Z,66.34
2022-10-10T23:06:06.928Z,66.28
2022-10-10T23:08:32.784Z,66.39
2022-10-10T23:10:59.118Z,66.29
2022-10-10T23:13:25.472Z,66.29
2022-10-10T23:15:51.789Z,65.91
2022-10-10T23:18:18.131Z,65.93
2022-10-10T23:20:44.486Z,66.24
2022-10-10T23:23:10.809Z,66.46
2022-10-10T23:25:37.153Z,66.72
2022-10-10T23:28:03.522Z,66.63
2022-10-10T23:30:29.870Z,66.60
2022-10-10T23:32:56.202Z,66.47
2022-10-10T23:35:22.548Z,66.48
2022-10-10T23:37:48.881Z,66.23
2022-10-10T23:40:15.198Z,66.49
2022-10-10T23:42:41.519Z,66.82
2022-10-10T23:45:07.860Z,66.34
2022-10-10T23:47:34.197Z,66.37
2022-10-10T23:50:00.515Z,65.99
2022-10-10T23:52:26.876Z,65.83
2022-10-10T23:54:53.209Z,65.97
2022-10-10T23:57:19.544Z,66.01
2022-10-10T23:59:45.886Z,65.96
